CheckWX is a tool to help pilots better visualize weather data.  It is not intended as a substitute for an official pre-flight weather briefing.

06:01:33 UTC

KRNO METAR
Reno / Tahoe International Airport
Reno, Nevada, USA
Current

1 hour ago

KRNO 250455Z 28005KT 10SM SCT240 19/M03 A3011 RMK AO2 SLP155 T01891028
Observed
May-25 @ 04:55 UTC
Wind
  • 280° at 5 KTS
Visibility
Flight Rules
VFR
Cloud Levels
  • Scattered at 24,000' AGL
Temperature
19°C / 66°F
Dewpoint
-3°C / 27°F
Humidity
22%
Altimeter
30.11" Hg
Pressure
1019.62 hPa
Previous

2 hours ago

KRNO 250355Z 36006KT 10SM BKN240 21/M05 A3009 RMK AO2 SLP151 T02061050
Observed
May-25 @ 03:55 UTC
Wind
  • 360° at 6 KTS
Visibility
Flight Rules
VFR
Cloud Levels
  • Broken at 24,000' AGL
Temperature
21°C / 70°F
Dewpoint
-5°C / 23°F
Humidity
17%
Altimeter
30.09" Hg
Pressure
1018.92 hPa
Previous

3 hours ago

KRNO 250255Z 01007KT 10SM BKN250 22/M05 A3008 RMK AO2 SLP148 T02221050 53002
Observed
May-25 @ 02:55 UTC
Wind
  • 010° at 7 KTS
Visibility
Flight Rules
VFR
Cloud Levels
  • Broken at 25,000' AGL
Temperature
22°C / 72°F
Dewpoint
-5°C / 23°F
Humidity
16%
Altimeter
30.08" Hg
Pressure
1018.62 hPa